Time;durP1;ratioP1;P1;durP2;ratioP2;P2;SDS_P1;SDS_P2;PMS_P1;PMS_P2;Temp;Humidity;BMP_temperature;BMP_pressure;BME280_temperature;BME280_humidity;BME280_pressure;Samples;Min_cycle;Max_cycle;Signal;HPM_P1;HPM_P2
2023/04/12 00:02:14;;;;;;;7.63;3.30;;;7.30;99.90;;;;;;5006189;28;20100;-81
2023/04/12 00:04:40;;;;;;;9.10;3.17;;;7.30;99.90;;;;;;5013589;28;20049;-81
2023/04/12 00:07:08;;;;;;;8.37;3.07;;;7.30;99.90;;;;;;4989478;28;20050;-81
2023/04/12 00:09:35;;;;;;;9.27;2.97;;;7.40;99.90;;;;;;4998884;28;20127;-81
2023/04/12 00:12:01;;;;;;;10.10;2.83;;;7.40;99.90;;;;;;5001100;28;20112;-81
2023/04/12 00:14:27;;;;;;;6.80;3.30;;;7.40;99.90;;;;;;5007996;28;20569;-81
2023/04/12 00:16:53;;;;;;;11.47;3.87;;;7.40;99.90;;;;;;5008228;28;20122;-81
2023/04/12 00:19:19;;;;;;;9.47;3.33;;;7.40;99.90;;;;;;5012249;28;20076;-82
2023/04/12 00:21:44;;;;;;;9.50;3.13;;;7.40;99.90;;;;;;4994130;28;20077;-81
2023/04/12 00:24:10;;;;;;;11.67;3.47;;;7.40;99.90;;;;;;4998502;28;20049;-81
2023/04/12 00:26:36;;;;;;;8.83;3.50;;;7.40;99.90;;;;;;5013304;28;20558;-80
2023/04/12 00:29:01;;;;;;;7.07;3.03;;;7.40;99.90;;;;;;5001569;28;20064;-81
2023/04/12 00:31:28;;;;;;;8.00;3.77;;;7.40;99.90;;;;;;5021667;28;20492;-81
2023/04/12 00:33:54;;;;;;;9.57;3.23;;;7.40;99.90;;;;;;5021666;28;20061;-81
2023/04/12 00:36:20;;;;;;;10.90;3.40;;;7.40;99.90;;;;;;5000804;28;20451;-80
2023/04/12 00:38:45;;;;;;;7.70;3.17;;;7.40;99.90;;;;;;5014347;28;20049;-80
2023/04/12 00:41:12;;;;;;;9.67;3.43;;;7.40;99.90;;;;;;4993881;28;20038;-81
2023/04/12 00:43:42;;;;;;;6.57;2.90;;;7.50;99.90;;;;;;5001933;28;20041;-81
2023/04/12 00:46:08;;;;;;;11.60;3.80;;;7.50;99.90;;;;;;5004099;28;20113;-80
2023/04/12 00:48:35;;;;;;;8.37;3.00;;;7.50;99.90;;;;;;4991668;28;20074;-81
2023/04/12 00:51:03;;;;;;;7.57;3.10;;;7.50;99.90;;;;;;4990688;28;20041;-81
2023/04/12 00:53:30;;;;;;;13.97;3.50;;;7.60;99.90;;;;;;5009070;28;20068;-80
2023/04/12 00:55:57;;;;;;;9.10;3.53;;;7.70;99.90;;;;;;4990945;28;20038;-80
2023/04/12 00:58:26;;;;;;;11.00;3.07;;;7.70;99.90;;;;;;5005759;28;20092;-82
2023/04/12 01:00:51;;;;;;;10.43;3.67;;;7.80;99.90;;;;;;5003632;28;20486;-80
2023/04/12 01:03:22;;;;;;;10.90;3.70;;;7.90;99.90;;;;;;4987323;28;20389;-82
2023/04/12 01:06:17;;;;;;;7.73;3.30;;;8.00;99.90;;;;;;5006760;28;20133;-82
2023/04/12 01:08:56;;;;;;;9.00;3.40;;;8.10;99.90;;;;;;5011603;28;20037;-83
2023/04/12 01:12:00;;;;;;;8.87;3.53;;;8.10;99.90;;;;;;4989908;28;20070;-81
2023/04/12 01:14:45;;;;;;;9.03;3.27;;;8.20;99.90;;;;;;5000391;28;20070;-82
2023/04/12 01:17:16;;;;;;;7.70;3.30;;;8.30;99.90;;;;;;4981356;28;20053;-81
2023/04/12 01:19:59;;;;;;;10.37;3.53;;;8.40;99.90;;;;;;5005833;28;20451;-82
2023/04/12 01:22:25;;;;;;;9.73;3.73;;;8.40;99.90;;;;;;4996682;28;20047;-80
2023/04/12 01:25:06;;;;;;;13.03;3.37;;;8.40;99.90;;;;;;5003129;28;20168;-78
2023/04/12 01:27:42;;;;;;;8.77;3.60;;;8.50;99.90;;;;;;5008897;28;20046;-79
2023/04/12 01:30:11;;;;;;;9.60;3.40;;;8.50;99.90;;;;;;4993606;28;20584;-80
2023/04/12 01:32:39;;;;;;;7.73;3.47;;;8.50;99.90;;;;;;4980627;28;20482;-80
2023/04/12 01:35:07;;;;;;;8.77;4.03;;;8.50;99.90;;;;;;5001854;28;20068;-79
2023/04/12 01:37:34;;;;;;;6.70;3.20;;;8.50;99.90;;;;;;5012577;28;20034;-81
2023/04/12 01:40:01;;;;;;;8.00;3.80;;;8.50;99.90;;;;;;5005499;28;20045;-80
2023/04/12 01:42:27;;;;;;;14.60;3.93;;;8.50;99.90;;;;;;5009256;28;20397;-80
2023/04/12 01:44:53;;;;;;;9.50;3.90;;;8.50;99.90;;;;;;5002090;28;20442;-80
2023/04/12 01:47:18;;;;;;;9.20;3.33;;;8.50;99.90;;;;;;4985334;28;20111;-80
2023/04/12 01:50:21;;;;;;;11.07;3.43;;;8.50;99.90;;;;;;4981260;28;20057;-83
2023/04/12 01:52:59;;;;;;;7.87;3.27;;;8.40;99.90;;;;;;4994835;28;20045;-83
2023/04/12 01:55:28;;;;;;;10.23;3.80;;;8.50;99.90;;;;;;5001684;28;20288;-83
2023/04/12 01:57:55;;;;;;;9.93;3.57;;;8.40;99.90;;;;;;5005325;28;20485;-82
2023/04/12 02:00:22;;;;;;;10.23;3.90;;;8.40;99.90;;;;;;5007365;28;20049;-82
2023/04/12 02:02:48;;;;;;;11.50;4.37;;;8.40;99.90;;;;;;4997320;28;20045;-81
2023/04/12 02:05:15;;;;;;;11.47;4.00;;;8.40;99.90;;;;;;5010508;28;20045;-81
2023/04/12 02:07:41;;;;;;;10.80;3.80;;;8.40;99.90;;;;;;5000718;28;20049;-82
2023/04/12 02:10:11;;;;;;;8.60;3.80;;;8.40;99.90;;;;;;5020634;28;20099;-82
2023/04/12 02:12:37;;;;;;;12.90;3.80;;;8.40;99.90;;;;;;4978988;28;20042;-83
2023/04/12 02:15:03;;;;;;;9.30;3.60;;;8.30;99.90;;;;;;4996501;28;20049;-83
2023/04/12 02:17:29;;;;;;;9.10;3.40;;;8.30;99.90;;;;;;5010701;28;20050;-82
2023/04/12 02:19:54;;;;;;;12.30;4.13;;;8.30;99.90;;;;;;4992878;28;20607;-83
2023/04/12 02:22:20;;;;;;;7.67;3.80;;;8.40;99.90;;;;;;4974888;28;20133;-83
2023/04/12 02:24:46;;;;;;;8.70;3.70;;;8.30;99.90;;;;;;4999956;28;20042;-82
2023/04/12 02:27:12;;;;;;;8.13;3.20;;;8.40;99.90;;;;;;5017619;28;20328;-82
2023/04/12 02:29:37;;;;;;;7.97;3.50;;;8.30;99.90;;;;;;5010137;28;20359;-82
2023/04/12 02:32:03;;;;;;;11.20;3.93;;;8.30;99.90;;;;;;4990691;28;20037;-83
2023/04/12 02:34:33;;;;;;;6.87;2.90;;;8.30;99.90;;;;;;4992137;28;20038;-82
2023/04/12 02:36:58;;;;;;;7.87;2.87;;;8.40;99.90;;;;;;4990675;28;20041;-82
2023/04/12 02:39:24;;;;;;;5.13;2.83;;;8.40;99.90;;;;;;4997521;28;20030;-82
2023/04/12 02:41:50;;;;;;;9.13;3.40;;;8.40;99.90;;;;;;5028746;28;20636;-84
2023/04/12 02:44:16;;;;;;;6.40;2.40;;;8.40;99.90;;;;;;5014244;28;20095;-83
2023/04/12 02:46:41;;;;;;;6.67;2.83;;;8.40;99.90;;;;;;4998899;28;20533;-82
2023/04/12 02:49:07;;;;;;;6.53;3.17;;;8.40;99.90;;;;;;4995379;28;20053;-81
2023/04/12 02:51:33;;;;;;;7.07;2.93;;;8.40;99.90;;;;;;5011910;28;20045;-82
2023/04/12 02:54:00;;;;;;;4.87;3.20;;;8.40;99.90;;;;;;5010437;28;20042;-81
2023/04/12 02:56:28;;;;;;;7.80;3.17;;;8.40;99.90;;;;;;4992795;28;20041;-82
2023/04/12 02:58:54;;;;;;;7.00;3.20;;;8.40;99.90;;;;;;5033087;28;20046;-82
2023/04/12 03:01:20;;;;;;;9.23;2.77;;;8.40;99.90;;;;;;5014216;28;20044;-84
2023/04/12 03:03:46;;;;;;;7.73;2.93;;;8.40;99.90;;;;;;4995268;28;20084;-82
2023/04/12 03:06:12;;;;;;;5.63;2.40;;;8.40;99.90;;;;;;4977064;28;20042;-81
2023/04/12 03:08:38;;;;;;;3.27;1.90;;;8.40;99.90;;;;;;4983727;28;21293;-82
2023/04/12 03:11:04;;;;;;;6.13;2.20;;;8.40;99.90;;;;;;4990468;28;20049;-83
2023/04/12 03:13:30;;;;;;;7.53;2.30;;;8.40;99.90;;;;;;4971630;28;20039;-81
2023/04/12 03:15:58;;;;;;;7.27;2.43;;;8.40;99.90;;;;;;5001078;28;20041;-82
2023/04/12 03:18:24;;;;;;;6.37;2.30;;;8.40;99.90;;;;;;5002123;28;20505;-82
2023/04/12 03:20:53;;;;;;;4.90;2.10;;;8.50;99.90;;;;;;4996152;28;20046;-82
2023/04/12 03:23:19;;;;;;;5.83;2.53;;;8.50;99.90;;;;;;5001380;28;20044;-81
2023/04/12 03:25:45;;;;;;;6.00;1.97;;;8.50;99.90;;;;;;5015323;28;20049;-82
2023/04/12 03:28:11;;;;;;;4.00;1.90;;;8.50;99.90;;;;;;5006258;28;20049;-82
2023/04/12 03:30:36;;;;;;;3.80;1.80;;;8.50;99.90;;;;;;4989476;28;20038;-83
2023/04/12 03:33:02;;;;;;;6.53;1.87;;;8.50;99.90;;;;;;4995078;28;20041;-83
2023/04/12 03:35:28;;;;;;;6.43;2.10;;;8.50;99.90;;;;;;4990287;28;20046;-83
2023/04/12 03:37:53;;;;;;;5.30;2.33;;;8.50;99.90;;;;;;4990879;28;20080;-83
2023/04/12 03:40:19;;;;;;;6.97;2.40;;;8.50;99.90;;;;;;5000009;28;20152;-83
2023/04/12 03:42:45;;;;;;;4.70;2.47;;;8.50;99.90;;;;;;5016864;28;20112;-82
2023/04/12 03:45:11;;;;;;;6.93;2.47;;;8.50;99.90;;;;;;5005386;28;20521;-82
2023/04/12 03:47:36;;;;;;;5.00;2.20;;;8.50;99.90;;;;;;4990845;28;20054;-83
2023/04/12 03:50:09;;;;;;;8.90;2.63;;;8.50;99.90;;;;;;4985429;28;20466;-81
2023/04/12 03:52:35;;;;;;;5.97;2.10;;;8.50;99.90;;;;;;5013756;28;20038;-82
2023/04/12 03:55:00;;;;;;;5.43;2.60;;;8.50;99.90;;;;;;4985845;28;20052;-81
2023/04/12 03:57:26;;;;;;;5.57;2.60;;;8.50;99.90;;;;;;5008144;28;20034;-81
2023/04/12 03:59:52;;;;;;;6.70;3.00;;;8.50;99.90;;;;;;5015146;28;20049;-82
2023/04/12 04:02:18;;;;;;;6.83;2.70;;;8.50;99.90;;;;;;4999728;28;20505;-81
2023/04/12 04:04:43;;;;;;;5.57;2.67;;;8.50;99.90;;;;;;5014727;28;20041;-83
2023/04/12 04:07:10;;;;;;;5.50;2.90;;;8.40;99.90;;;;;;4985203;28;20053;-83
2023/04/12 04:09:36;;;;;;;6.23;2.63;;;8.50;99.90;;;;;;5028312;28;20458;-83
2023/04/12 04:12:01;;;;;;;7.67;2.87;;;8.40;99.90;;;;;;4988035;28;20116;-83
2023/04/12 04:14:27;;;;;;;6.20;3.27;;;8.50;99.90;;;;;;4994336;28;20113;-82
2023/04/12 04:16:54;;;;;;;8.50;3.40;;;8.40;99.90;;;;;;4990642;28;20038;-82
2023/04/12 04:19:20;;;;;;;5.13;2.50;;;8.40;99.90;;;;;;4988115;28;20042;-82
2023/04/12 04:21:46;;;;;;;7.87;3.00;;;8.40;99.90;;;;;;4989689;28;20080;-82
2023/04/12 04:24:13;;;;;;;6.93;3.00;;;8.40;99.90;;;;;;5006917;28;20789;-82
2023/04/12 04:26:39;;;;;;;8.30;3.30;;;8.40;99.90;;;;;;5028515;28;20478;-82
2023/04/12 04:29:04;;;;;;;8.47;3.63;;;8.30;99.90;;;;;;5002731;28;20080;-82
2023/04/12 04:31:35;;;;;;;8.63;3.50;;;8.30;99.90;;;;;;5020862;28;20133;-81
2023/04/12 04:34:04;;;;;;;7.60;3.77;;;8.30;99.90;;;;;;5013730;28;20052;-81
2023/04/12 04:36:35;;;;;;;6.93;3.37;;;8.20;99.90;;;;;;5010221;28;20810;-81
2023/04/12 04:39:03;;;;;;;9.10;3.13;;;8.20;99.90;;;;;;5026537;28;20516;-82
2023/04/12 04:41:33;;;;;;;6.87;3.50;;;8.10;99.90;;;;;;5028988;28;20400;-82
2023/04/12 04:43:59;;;;;;;6.83;3.10;;;8.10;99.90;;;;;;5007195;28;20042;-80
2023/04/12 04:46:29;;;;;;;8.80;3.70;;;8.10;99.90;;;;;;5011920;28;20124;-80
2023/04/12 04:48:55;;;;;;;6.93;3.10;;;8.10;99.90;;;;;;4990848;28;20478;-80
2023/04/12 04:51:21;;;;;;;5.40;3.30;;;8.10;99.90;;;;;;5031198;28;20041;-82
2023/04/12 04:53:46;;;;;;;10.67;3.27;;;8.10;99.90;;;;;;5030621;28;20041;-81
2023/04/12 04:56:12;;;;;;;7.73;3.00;;;8.10;99.90;;;;;;5007510;28;20087;-81
2023/04/12 04:58:38;;;;;;;7.10;3.23;;;8.10;99.90;;;;;;5012526;28;20802;-80
2023/04/12 05:01:04;;;;;;;6.87;3.00;;;8.00;99.90;;;;;;5015236;28;20084;-80
2023/04/12 05:03:32;;;;;;;7.23;3.00;;;8.00;99.90;;;;;;5014737;28;20049;-81
2023/04/12 05:06:00;;;;;;;6.83;2.80;;;8.00;99.90;;;;;;5014744;28;20508;-84
2023/04/12 05:08:27;;;;;;;6.93;2.73;;;8.00;99.90;;;;;;5030764;28;20061;-82
2023/04/12 05:10:54;;;;;;;8.33;2.80;;;8.00;99.90;;;;;;5006278;28;20056;-81
2023/04/12 05:13:21;;;;;;;6.00;2.70;;;8.00;99.90;;;;;;5012078;28;20359;-81
2023/04/12 05:15:47;;;;;;;6.93;2.80;;;8.00;99.90;;;;;;4998314;28;20049;-82
2023/04/12 05:18:13;;;;;;;8.00;2.60;;;8.00;99.90;;;;;;5031198;28;20382;-82
2023/04/12 05:20:40;;;;;;;6.57;2.93;;;8.00;99.90;;;;;;4998239;28;20072;-81
2023/04/12 05:23:05;;;;;;;4.13;2.73;;;7.90;99.90;;;;;;5008466;28;20049;-80
2023/04/12 05:25:32;;;;;;;6.83;3.03;;;7.90;99.90;;;;;;5006466;28;20048;-81
2023/04/12 05:27:57;;;;;;;7.30;2.60;;;7.90;99.90;;;;;;5014203;28;20413;-80
2023/04/12 05:30:23;;;;;;;4.93;2.87;;;7.90;99.90;;;;;;5014132;28;20045;-81
2023/04/12 05:32:49;;;;;;;7.90;3.00;;;7.90;99.90;;;;;;5030280;28;20048;-81
2023/04/12 05:35:15;;;;;;;7.87;2.90;;;7.90;99.90;;;;;;5030198;28;20124;-80
2023/04/12 05:37:41;;;;;;;6.90;2.93;;;7.80;99.90;;;;;;5029519;28;20497;-80
2023/04/12 05:40:08;;;;;;;5.97;2.70;;;7.90;99.90;;;;;;5012644;28;20033;-83
2023/04/12 05:42:37;;;;;;;6.37;2.50;;;7.80;99.90;;;;;;5014024;28;20041;-81
2023/04/12 05:45:04;;;;;;;8.63;3.23;;;7.80;99.90;;;;;;5030165;28;20041;-81
2023/04/12 05:47:30;;;;;;;6.80;2.90;;;7.80;99.90;;;;;;5010010;28;20509;-81
2023/04/12 05:49:55;;;;;;;7.93;3.20;;;7.80;99.90;;;;;;4993570;28;20121;-81
2023/04/12 05:52:21;;;;;;;7.90;3.07;;;7.80;99.90;;;;;;4997416;28;20041;-82
2023/04/12 05:54:47;;;;;;;6.10;2.80;;;7.80;99.90;;;;;;4990291;28;20041;-81
2023/04/12 05:57:14;;;;;;;6.77;3.37;;;7.80;99.90;;;;;;4992067;28;20049;-83
2023/04/12 05:59:39;;;;;;;7.40;2.90;;;7.80;99.90;;;;;;4997524;28;20640;-81
2023/04/12 06:02:06;;;;;;;4.90;2.57;;;7.80;99.90;;;;;;5013879;28;20049;-82
2023/04/12 06:04:32;;;;;;;7.17;3.30;;;7.80;99.90;;;;;;4993766;28;20037;-83
2023/04/12 06:06:57;;;;;;;6.27;3.13;;;7.80;99.90;;;;;;4976968;28;20037;-83
2023/04/12 06:09:23;;;;;;;6.77;3.60;;;7.80;99.90;;;;;;5003368;28;20128;-84
2023/04/12 06:11:49;;;;;;;6.10;3.30;;;7.80;99.90;;;;;;4964557;28;20037;-82
2023/04/12 06:14:15;;;;;;;6.63;3.17;;;7.80;99.90;;;;;;4997870;28;20033;-83
2023/04/12 06:16:41;;;;;;;7.00;3.57;;;7.70;99.90;;;;;;4986818;28;20405;-82
2023/04/12 06:19:06;;;;;;;7.23;3.57;;;7.80;99.90;;;;;;5013260;28;20044;-81
2023/04/12 06:21:32;;;;;;;7.60;3.70;;;7.80;99.90;;;;;;5013345;28;20180;-82
2023/04/12 06:23:58;;;;;;;6.53;3.77;;;7.70;99.90;;;;;;5030368;28;20057;-82
2023/04/12 06:26:23;;;;;;;8.90;4.17;;;7.70;99.90;;;;;;5012965;28;20103;-82
2023/04/12 06:28:49;;;;;;;6.57;3.40;;;7.70;99.90;;;;;;4990256;28;20048;-81
2023/04/12 06:31:15;;;;;;;9.77;4.20;;;7.80;99.90;;;;;;4996828;28;20520;-81
2023/04/12 06:33:41;;;;;;;8.77;3.87;;;7.70;99.90;;;;;;5029475;28;20041;-80
2023/04/12 06:36:08;;;;;;;10.13;4.30;;;7.80;99.90;;;;;;5022825;28;20041;-82
2023/04/12 06:38:33;;;;;;;7.73;3.87;;;7.70;99.90;;;;;;5012985;28;20513;-82
2023/04/12 06:40:59;;;;;;;9.07;3.47;;;7.70;99.90;;;;;;4997294;28;20050;-81
2023/04/12 06:43:25;;;;;;;8.93;3.70;;;7.70;99.90;;;;;;4997008;28;20049;-82
2023/04/12 06:45:51;;;;;;;9.30;4.33;;;7.70;99.90;;;;;;5028906;28;20065;-82
2023/04/12 06:48:17;;;;;;;9.23;3.97;;;7.70;99.90;;;;;;5012646;28;20050;-81
2023/04/12 06:50:44;;;;;;;5.67;3.40;;;7.70;99.90;;;;;;5024835;28;20101;-80
2023/04/12 06:53:12;;;;;;;9.20;5.27;;;7.70;99.90;;;;;;5025034;28;20470;-81
2023/04/12 06:55:38;;;;;;;9.47;4.80;;;7.80;99.90;;;;;;5006490;28;20041;-82
2023/04/12 06:58:03;;;;;;;6.40;3.97;;;7.80;99.90;;;;;;5012371;28;20049;-80
2023/04/12 07:00:29;;;;;;;6.10;3.50;;;7.80;99.90;;;;;;5028684;28;20120;-79
2023/04/12 07:02:55;;;;;;;7.30;4.27;;;7.80;99.90;;;;;;4982352;28;20438;-81
2023/04/12 07:05:21;;;;;;;6.27;3.60;;;7.80;99.90;;;;;;5011121;28;20074;-81
2023/04/12 07:07:46;;;;;;;7.83;4.10;;;7.80;99.90;;;;;;5029046;28;20041;-79
2023/04/12 07:10:12;;;;;;;5.63;3.97;;;7.80;99.90;;;;;;5013115;28;20041;-80
2023/04/12 07:12:38;;;;;;;8.43;3.93;;;7.80;99.90;;;;;;5012853;28;20037;-80
2023/04/12 07:15:04;;;;;;;10.93;4.50;;;7.90;99.90;;;;;;5012278;28;20116;-81
2023/04/12 07:17:30;;;;;;;10.97;3.70;;;7.90;99.90;;;;;;4995633;28;20093;-79
2023/04/12 07:19:55;;;;;;;7.90;4.07;;;7.80;99.90;;;;;;5010535;28;20076;-81
2023/04/12 07:22:21;;;;;;;7.03;3.80;;;7.80;99.90;;;;;;5016295;28;20061;-81
2023/04/12 07:24:49;;;;;;;7.80;3.70;;;7.80;99.90;;;;;;5015848;28;20042;-80
2023/04/12 07:27:15;;;;;;;7.23;3.73;;;7.90;99.90;;;;;;5015681;28;20065;-80
2023/04/12 07:29:41;;;;;;;7.33;3.87;;;7.90;99.90;;;;;;4995544;28;20037;-79
2023/04/12 07:32:08;;;;;;;5.67;3.70;;;7.90;99.90;;;;;;5007781;28;20114;-79
2023/04/12 07:34:33;;;;;;;6.60;3.87;;;7.90;99.90;;;;;;5030262;28;20049;-80
2023/04/12 07:37:03;;;;;;;5.33;3.70;;;7.90;99.90;;;;;;5032449;28;20037;-80
2023/04/12 07:39:28;;;;;;;8.10;4.33;;;7.90;99.90;;;;;;5023512;28;20484;-80
2023/04/12 07:41:54;;;;;;;6.83;4.00;;;7.90;99.90;;;;;;5001895;28;20172;-79
2023/04/12 07:44:20;;;;;;;7.37;4.20;;;7.90;99.90;;;;;;5003414;28;20080;-79
2023/04/12 07:46:46;;;;;;;6.53;4.40;;;7.90;99.90;;;;;;5030065;28;20080;-80
2023/04/12 07:49:12;;;;;;;7.17;4.17;;;7.90;99.90;;;;;;4998738;28;20513;-80
2023/04/12 07:51:38;;;;;;;7.67;3.80;;;7.80;99.90;;;;;;5015385;28;20045;-80
2023/04/12 07:54:03;;;;;;;7.33;4.40;;;7.90;99.90;;;;;;4998742;28;20408;-79
2023/04/12 07:56:32;;;;;;;7.97;4.57;;;7.90;99.90;;;;;;5024636;28;20120;-79
2023/04/12 07:58:58;;;;;;;6.83;4.50;;;7.90;99.90;;;;;;5018654;28;20072;-81
2023/04/12 08:01:24;;;;;;;7.13;4.47;;;7.90;99.90;;;;;;5030622;28;20049;-79
2023/04/12 08:03:49;;;;;;;6.23;4.03;;;7.90;99.90;;;;;;4999265;28;20045;-81
2023/04/12 08:06:16;;;;;;;6.27;4.63;;;7.90;99.90;;;;;;4998581;28;20041;-80
2023/04/12 08:08:41;;;;;;;7.60;5.20;;;7.90;99.90;;;;;;5031010;28;20042;-80
2023/04/12 08:11:07;;;;;;;6.13;4.70;;;7.90;99.90;;;;;;5027621;28;20096;-80
2023/04/12 08:13:34;;;;;;;10.67;5.30;;;7.90;99.90;;;;;;4999253;28;20041;-81
2023/04/12 08:16:00;;;;;;;5.60;4.10;;;8.00;99.90;;;;;;4998685;28;20477;-81
2023/04/12 08:18:27;;;;;;;10.07;4.90;;;8.00;99.90;;;;;;5014646;28;20107;-81
2023/04/12 08:20:57;;;;;;;7.27;4.27;;;8.00;99.90;;;;;;4998431;28;20559;-79
2023/04/12 08:23:22;;;;;;;6.97;4.50;;;8.00;99.90;;;;;;5008642;28;20038;-79
2023/04/12 08:25:48;;;;;;;7.50;4.80;;;8.00;99.90;;;;;;5024757;28;20494;-79
2023/04/12 08:28:14;;;;;;;6.80;4.87;;;8.00;99.90;;;;;;5030983;28;20038;-79
2023/04/12 08:30:41;;;;;;;8.33;4.83;;;8.10;99.90;;;;;;5013439;28;20049;-81
2023/04/12 08:33:07;;;;;;;7.73;4.90;;;8.10;99.90;;;;;;5022928;28;20041;-80
2023/04/12 08:35:32;;;;;;;8.80;5.03;;;8.20;99.90;;;;;;5024520;28;20045;-80
2023/04/12 08:38:05;;;;;;;7.50;4.90;;;8.20;99.90;;;;;;5030461;28;20041;-80
2023/04/12 08:40:31;;;;;;;7.93;5.43;;;8.20;99.90;;;;;;5015444;28;20103;-80
2023/04/12 08:43:00;;;;;;;5.97;4.97;;;8.30;99.90;;;;;;5014103;28;20053;-81
2023/04/12 08:45:29;;;;;;;6.77;5.43;;;8.30;99.90;;;;;;5030421;28;20103;-81
2023/04/12 08:47:55;;;;;;;5.57;5.07;;;8.30;99.90;;;;;;5030752;28;20045;-80
2023/04/12 08:50:21;;;;;;;11.97;6.90;;;8.40;99.90;;;;;;5003274;28;20053;-80
2023/04/12 08:52:49;;;;;;;7.93;6.30;;;8.40;99.90;;;;;;4973764;28;20071;-81
2023/04/12 08:55:15;;;;;;;7.63;6.47;;;8.40;99.90;;;;;;4997604;28;20132;-81
2023/04/12 08:57:41;;;;;;;8.20;6.73;;;8.50;99.90;;;;;;5014136;28;20037;-80
2023/04/12 09:00:08;;;;;;;10.17;7.50;;;8.50;99.90;;;;;;5014298;28;20041;-80
2023/04/12 09:02:37;;;;;;;9.03;6.87;;;8.50;99.90;;;;;;5002137;28;20131;-80
2023/04/12 09:05:05;;;;;;;8.00;6.70;;;8.50;99.90;;;;;;5020024;28;20405;-81
2023/04/12 09:07:31;;;;;;;7.63;6.83;;;8.50;99.90;;;;;;5030243;28;20045;-80
2023/04/12 09:09:57;;;;;;;7.43;6.60;;;8.50;99.90;;;;;;5030098;28;20033;-80
2023/04/12 09:12:23;;;;;;;6.80;5.90;;;8.50;99.90;;;;;;5013682;28;20056;-79
2023/04/12 09:15:12;;;;;;;7.07;5.93;;;8.50;99.90;;;;;;5024070;28;20041;-79
2023/04/12 09:17:39;;;;;;;6.80;5.50;;;8.50;99.90;;;;;;5017768;28;20178;-79
2023/04/12 09:20:11;;;;;;;7.23;5.30;;;8.50;99.90;;;;;;5012979;28;20120;-80
2023/04/12 09:22:43;;;;;;;7.30;5.28;;;8.50;99.90;;;;;;5013665;28;20045;-79
2023/04/12 09:25:10;;;;;;;6.70;5.70;;;8.50;99.90;;;;;;5007798;28;20053;-81
2023/04/12 09:27:53;;;;;;;8.17;6.37;;;8.50;99.90;;;;;;5007596;28;20476;-79
2023/04/12 09:30:19;;;;;;;7.33;5.77;;;8.50;99.90;;;;;;5029827;28;20053;-79
2023/04/12 09:32:48;;;;;;;8.70;6.70;;;8.50;99.90;;;;;;5027284;28;20081;-80
2023/04/12 09:35:14;;;;;;;7.23;6.53;;;8.50;99.90;;;;;;5029733;28;20052;-81
2023/04/12 09:37:40;;;;;;;7.90;7.17;;;8.50;99.90;;;;;;5030003;28;20042;-79
2023/04/12 09:40:08;;;;;;;7.30;6.70;;;8.50;99.90;;;;;;4986532;28;20072;-79
2023/04/12 09:42:35;;;;;;;7.83;7.13;;;8.60;99.90;;;;;;5010991;28;20061;-81
2023/04/12 09:45:19;;;;;;;8.33;7.43;;;8.60;99.90;;;;;;5013218;28;20079;-80
2023/04/12 09:47:46;;;;;;;9.13;8.23;;;8.70;99.90;;;;;;5002842;28;20148;-80
2023/04/12 09:50:19;;;;;;;9.77;8.60;;;8.80;99.90;;;;;;4987457;28;20039;-80
2023/04/12 09:52:45;;;;;;;8.90;7.70;;;8.90;99.90;;;;;;5012979;28;20053;-79
2023/04/12 09:55:12;;;;;;;9.60;8.70;;;9.00;99.90;;;;;;5012980;28;20103;-80
2023/04/12 09:57:41;;;;;;;8.77;7.97;;;9.10;99.90;;;;;;5012803;28;20044;-80
2023/04/12 10:00:13;;;;;;;9.53;8.53;;;9.20;99.90;;;;;;5008013;28;20124;-80
2023/04/12 10:02:44;;;;;;;8.60;7.80;;;9.30;99.90;;;;;;5000117;28;20111;-80
2023/04/12 10:05:12;;;;;;;9.55;7.80;;;9.50;99.90;;;;;;5012869;28;20069;-80
2023/04/12 10:07:41;;;;;;;9.10;8.20;;;9.60;99.90;;;;;;5028542;28;20050;-81
2023/04/12 10:10:11;;;;;;;9.80;8.80;;;9.70;99.90;;;;;;5021070;28;20025;-81
2023/04/12 10:12:41;;;;;;;8.93;8.10;;;9.90;99.90;;;;;;4997626;28;20076;-81
2023/04/12 10:15:16;;;;;;;9.30;8.27;;;10.10;99.90;;;;;;5009086;28;20060;-81
2023/04/12 10:17:53;;;;;;;8.37;7.00;;;10.20;99.90;;;;;;5019245;28;20042;-81
2023/04/12 10:20:21;;;;;;;7.97;7.13;;;10.20;99.90;;;;;;5029913;28;20555;-82
2023/04/12 10:22:48;;;;;;;8.17;7.17;;;10.10;99.90;;;;;;5012384;28;20041;-80
2023/04/12 10:25:20;;;;;;;7.87;7.07;;;10.10;99.90;;;;;;5002326;28;20050;-81
2023/04/12 10:27:46;;;;;;;;;;;10.20;99.90;;;;;;5030115;28;20524;-81
2023/04/12 10:30:31;;;;;;;9.07;7.57;;;10.20;99.90;;;;;;5011512;28;19921;-82
2023/04/12 10:33:09;;;;;;;10.27;7.27;;;10.30;99.90;;;;;;5012986;28;20401;-81
2023/04/12 10:35:59;;;;;;;8.30;6.43;;;10.40;99.90;;;;;;5029331;28;20037;-82
2023/04/12 10:38:26;;;;;;;6.93;6.23;;;10.60;99.90;;;;;;5014285;28;20045;-83
2023/04/12 10:41:18;;;;;;;8.63;6.70;;;10.60;99.90;;;;;;4999302;28;20125;-82
2023/04/12 10:43:45;;;;;;;6.53;5.93;;;10.60;99.90;;;;;;5002182;28;20424;-82
2023/04/12 10:46:56;;;;;;;9.50;6.63;;;10.60;99.90;;;;;;5003766;28;20413;-82
2023/04/12 10:49:22;;;;;;;9.50;6.77;;;10.70;99.90;;;;;;5014342;28;20056;-81
2023/04/12 10:51:59;;;;;;;7.67;6.17;;;10.80;99.90;;;;;;4995191;28;20030;-83
2023/04/12 10:54:25;;;;;;;9.57;6.63;;;11.10;99.90;;;;;;5038598;28;20076;-81
2023/04/12 10:56:51;;;;;;;9.20;6.37;;;11.20;99.90;;;;;;5016388;28;20124;-81
2023/04/12 10:59:17;;;;;;;10.50;6.77;;;11.20;99.90;;;;;;5011474;28;20048;-81
2023/04/12 11:02:10;;;;;;;11.17;7.50;;;11.30;99.90;;;;;;5033719;28;20075;-80
2023/04/12 11:04:36;;;;;;;10.20;6.33;;;11.40;99.90;;;;;;5007115;28;20425;-81
2023/04/12 11:07:08;;;;;;;8.10;6.53;;;11.60;99.90;;;;;;5034826;28;20045;-81
2023/04/12 11:09:39;;;;;;;8.80;6.60;;;11.90;99.90;;;;;;5028154;28;20061;-81
2023/04/12 11:12:05;;;;;;;11.10;6.45;;;12.00;99.90;;;;;;4997934;28;20084;-81
2023/04/12 11:14:48;;;;;;;9.73;6.87;;;12.10;99.90;;;;;;5033094;28;20041;-81
2023/04/12 11:17:14;;;;;;;11.00;6.80;;;12.30;99.90;;;;;;5000927;28;20047;-79
2023/04/12 11:19:41;;;;;;;10.50;6.13;;;12.30;99.90;;;;;;5025245;28;20669;-80
2023/04/12 11:22:10;;;;;;;9.03;5.70;;;12.50;99.90;;;;;;4996419;28;20088;-81
2023/04/12 11:24:50;;;;;;;8.67;5.43;;;12.80;99.90;;;;;;5013676;28;20063;-80
2023/04/12 11:27:19;;;;;;;8.45;4.95;;;12.90;99.90;;;;;;4978981;28;20084;-80
2023/04/12 11:29:48;;;;;;;10.53;6.47;;;13.00;99.90;;;;;;5028329;28;20041;-80
2023/04/12 11:32:14;;;;;;;11.05;6.07;;;13.10;99.90;;;;;;5028240;28;20512;-80
2023/04/12 11:34:42;;;;;;;11.85;5.38;;;13.10;99.90;;;;;;5009967;28;20406;-82
2023/04/12 11:37:09;;;;;;;9.15;5.53;;;13.20;99.90;;;;;;4994827;28;20032;-80
2023/04/12 11:39:40;;;;;;;8.73;5.43;;;13.10;99.90;;;;;;5028156;28;20100;-80
2023/04/12 11:42:07;;;;;;;9.57;4.57;;;13.20;99.90;;;;;;5001768;28;20048;-80
2023/04/12 11:44:34;;;;;;;12.05;5.25;;;13.20;99.90;;;;;;5030425;28;20759;-82
2023/04/12 11:47:00;;;;;;;8.57;3.95;;;13.30;99.90;;;;;;5008880;28;20058;-82
2023/04/12 11:49:26;;;;;;;8.70;4.43;;;13.20;99.90;;;;;;5014189;28;20115;-80
2023/04/12 11:52:05;;;;;;;7.85;4.13;;;13.20;99.90;;;;;;4998359;28;20041;-82
2023/04/12 11:54:33;;;;;;;9.70;4.55;;;13.10;99.90;;;;;;4990859;28;20385;-80
2023/04/12 11:56:59;;;;;;;7.90;4.30;;;12.90;99.90;;;;;;5018679;28;20046;-80
2023/04/12 11:59:34;;;;;;;9.55;4.15;;;13.00;99.90;;;;;;5011959;28;20041;-81
2023/04/12 12:02:03;;;;;;;8.55;4.18;;;12.90;99.90;;;;;;4995595;28;20129;-80
2023/04/12 12:04:30;;;;;;;8.73;5.13;;;13.00;99.90;;;;;;5016319;28;20048;-81
2023/04/12 12:06:57;;;;;;;13.40;4.90;;;13.30;99.90;;;;;;4995710;28;20042;-80
2023/04/12 12:09:25;;;;;;;10.27;4.68;;;13.60;99.90;;;;;;5009550;28;20092;-80
2023/04/12 12:11:52;;;;;;;9.65;3.90;;;13.90;99.90;;;;;;5015818;28;20424;-81
2023/04/12 12:14:20;;;;;;;11.40;3.75;;;14.10;99.90;;;;;;4984294;28;20034;-80
2023/04/12 12:16:57;;;;;;;9.63;3.30;;;14.20;99.90;;;;;;5022532;28;20042;-80
2023/04/12 12:19:28;;;;;;;9.48;3.40;;;14.10;99.90;;;;;;4996050;28;20111;-81
2023/04/12 12:22:05;;;;;;;9.18;3.80;;;13.90;99.90;;;;;;4998999;28;20048;-81
2023/04/12 12:24:31;;;;;;;6.70;3.53;;;13.70;99.90;;;;;;5019629;28;20078;-80
2023/04/12 12:27:01;;;;;;;8.63;3.80;;;13.50;99.90;;;;;;5019282;28;20073;-80
2023/04/12 12:29:35;;;;;;;9.27;3.20;;;13.40;99.90;;;;;;5010472;28;20041;-80
2023/04/12 12:32:11;;;;;;;7.82;3.35;;;13.30;99.90;;;;;;4998742;28;20120;-80
2023/04/12 12:34:37;;;;;;;10.35;3.10;;;13.20;99.90;;;;;;5003782;28;20037;-79
2023/04/12 12:37:07;;;;;;;9.40;3.08;;;13.20;99.90;;;;;;5014508;28;20033;-80
2023/04/12 12:39:32;;;;;;;9.23;2.83;;;13.20;99.90;;;;;;5014733;28;20415;-80
2023/04/12 12:41:59;;;;;;;8.70;2.83;;;13.10;99.90;;;;;;5018378;28;20124;-80
2023/04/12 12:44:24;;;;;;;9.38;2.97;;;13.10;99.90;;;;;;5010655;28;20044;-80
2023/04/12 12:46:50;;;;;;;12.05;2.90;;;13.10;99.90;;;;;;5001222;28;20128;-81
2023/04/12 12:49:17;;;;;;;11.23;2.90;;;13.10;99.90;;;;;;5007933;28;20046;-80
2023/04/12 12:51:42;;;;;;;11.23;3.00;;;13.20;99.90;;;;;;5007141;28;20167;-80
2023/04/12 12:54:08;;;;;;;10.52;3.28;;;13.20;99.90;;;;;;5020665;28;20042;-80
2023/04/12 12:56:37;;;;;;;7.40;2.50;;;13.40;99.90;;;;;;5010258;28;20038;-80
2023/04/12 12:59:03;;;;;;;7.82;2.70;;;13.60;99.90;;;;;;5021170;28;20048;-80